createdAt,value
2023-04-07T00:02:47.130Z,100.00
2023-04-07T00:05:50.523Z,100.00
2023-04-07T00:08:53.602Z,100.00
2023-04-07T00:11:56.854Z,100.00
2023-04-07T00:14:59.876Z,100.00
2023-04-07T00:18:04.689Z,100.00
2023-04-07T00:21:08.129Z,100.00
2023-04-07T00:24:14.468Z,100.00
2023-04-07T00:27:23.215Z,100.00
2023-04-07T00:30:26.655Z,100.00
2023-04-07T00:33:31.518Z,100.00
2023-04-07T00:36:34.832Z,100.00
2023-04-07T00:39:38.112Z,100.00
2023-04-07T00:42:41.180Z,100.00
2023-04-07T00:45:44.516Z,100.00
2023-04-07T00:48:49.054Z,100.00
2023-04-07T00:51:52.355Z,100.00
2023-04-07T00:54:55.956Z,100.00
2023-04-07T00:57:59.186Z,100.00
2023-04-07T01:01:13.492Z,100.00
2023-04-07T01:04:28.725Z,100.00
2023-04-07T01:07:59.407Z,100.00
2023-04-07T01:11:09.885Z,100.00
2023-04-07T01:14:16.986Z,100.00
2023-04-07T01:17:26.471Z,100.00
2023-04-07T01:20:34.344Z,100.00
2023-04-07T01:23:53.927Z,100.00
2023-04-07T01:27:07.330Z,100.00
2023-04-07T01:30:14.373Z,100.00
2023-04-07T01:33:19.193Z,100.00
2023-04-07T01:36:23.166Z,100.00
2023-04-07T01:39:28.290Z,100.00
2023-04-07T01:42:32.555Z,100.00
2023-04-07T01:45:38.436Z,100.00
2023-04-07T01:48:41.828Z,100.00
2023-04-07T01:51:50.074Z,100.00
2023-04-07T01:54:54.410Z,100.00
2023-04-07T01:57:57.662Z,100.00
2023-04-07T02:01:02.113Z,100.00
2023-04-07T02:04:12.876Z,100.00
2023-04-07T02:07:21.433Z,100.00
2023-04-07T02:10:29.476Z,100.00
2023-04-07T02:13:36.421Z,100.00
2023-04-07T02:16:42.747Z,100.00
2023-04-07T02:19:47.672Z,100.00
2023-04-07T02:22:51.292Z,100.00
2023-04-07T02:25:58.183Z,100.00
2023-04-07T02:29:02.123Z,100.00
2023-04-07T02:32:07.389Z,100.00
2023-04-07T02:35:11.371Z,100.00
2023-04-07T02:38:14.415Z,100.00
2023-04-07T02:41:17.492Z,100.00
2023-04-07T02:44:20.667Z,100.00
2023-04-07T02:47:25.106Z,100.00
2023-04-07T02:50:29.140Z,100.00
2023-04-07T02:53:32.521Z,100.00
2023-04-07T02:56:36.224Z,100.00
2023-04-07T02:59:39.302Z,100.00
2023-04-07T03:02:45.533Z,100.00
2023-04-07T03:05:49.573Z,100.00
2023-04-07T03:08:52.734Z,100.00
2023-04-07T03:11:56.089Z,100.00
2023-04-07T03:14:59.313Z,100.00
2023-04-07T03:18:04.655Z,100.00
2023-04-07T03:21:08.286Z,100.00
2023-04-07T03:24:12.992Z,100.00
2023-04-07T03:27:17.379Z,100.00
2023-04-07T03:30:23.139Z,100.00
2023-04-07T03:33:27.694Z,100.00
2023-04-07T03:36:32.284Z,100.00
2023-04-07T03:39:41.127Z,100.00
2023-04-07T03:42:58.509Z,100.00
2023-04-07T03:46:01.633Z,100.00
2023-04-07T03:49:06.712Z,100.00
2023-04-07T03:52:09.945Z,100.00
2023-04-07T03:55:13.724Z,100.00
2023-04-07T03:58:17.562Z,100.00
2023-04-07T04:01:23.573Z,100.00
2023-04-07T04:04:28.947Z,100.00
2023-04-07T04:07:33.684Z,100.00
2023-04-07T04:10:41.349Z,100.00
2023-04-07T04:13:45.823Z,100.00
2023-04-07T04:16:49.391Z,100.00
2023-04-07T04:20:12.952Z,100.00
2023-04-07T04:23:21.971Z,100.00
2023-04-07T04:26:29.816Z,100.00
2023-04-07T04:29:37.755Z,100.00
2023-04-07T04:32:42.754Z,100.00
2023-04-07T04:35:48.302Z,100.00
2023-04-07T04:38:54.252Z,100.00
2023-04-07T04:41:58.354Z,100.00
2023-04-07T04:45:09.612Z,100.00
2023-04-07T04:48:14.543Z,100.00
2023-04-07T04:51:19.753Z,100.00
2023-04-07T04:54:27.603Z,100.00
2023-04-07T04:57:30.937Z,100.00
2023-04-07T05:00:36.133Z,100.00
2023-04-07T05:03:43.205Z,100.00
2023-04-07T05:06:56.309Z,100.00
2023-04-07T05:10:03.126Z,100.00
2023-04-07T05:13:09.301Z,100.00
2023-04-07T05:16:15.907Z,100.00
2023-04-07T05:19:19.638Z,100.00
2023-04-07T05:22:24.201Z,100.00
2023-04-07T05:25:28.134Z,100.00
2023-04-07T05:28:35.812Z,100.00
2023-04-07T05:31:43.143Z,100.00
2023-04-07T05:34:49.779Z,100.00
2023-04-07T05:37:54.989Z,100.00
2023-04-07T05:40:58.281Z,100.00
2023-04-07T05:44:07.336Z,100.00
2023-04-07T05:47:14.901Z,100.00
2023-04-07T05:50:19.400Z,100.00
2023-04-07T05:53:25.580Z,100.00
2023-04-07T05:56:28.912Z,100.00
2023-04-07T05:59:32.248Z,100.00
2023-04-07T06:02:36.281Z,100.00
2023-04-07T06:05:43.473Z,100.00
2023-04-07T06:08:49.386Z,100.00
2023-04-07T06:11:52.430Z,100.00
2023-04-07T06:14:57.542Z,100.00
2023-04-07T06:18:00.646Z,100.00
2023-04-07T06:21:04.362Z,100.00
2023-04-07T06:24:10.052Z,100.00
2023-04-07T06:27:13.658Z,100.00
2023-04-07T06:30:17.452Z,100.00
2023-04-07T06:33:25.739Z,100.00
2023-04-07T06:36:29.176Z,100.00
2023-04-07T06:39:34.065Z,100.00
2023-04-07T06:42:37.024Z,100.00
2023-04-07T06:45:51.792Z,100.00
2023-04-07T06:48:54.811Z,100.00
2023-04-07T06:51:57.814Z,100.00
2023-04-07T06:55:02.189Z,100.00
2023-04-07T06:58:05.366Z,100.00
2023-04-07T07:01:12.331Z,100.00
2023-04-07T07:04:15.639Z,100.00
2023-04-07T07:07:18.975Z,100.00
2023-04-07T07:10:23.539Z,100.00
2023-04-07T07:13:28.011Z,100.00
2023-04-07T07:16:30.962Z,100.00
2023-04-07T07:19:33.970Z,100.00
2023-04-07T07:22:37.152Z,100.00
2023-04-07T07:25:42.035Z,100.00
2023-04-07T07:28:45.032Z,100.00
2023-04-07T07:31:48.289Z,100.00
2023-04-07T07:34:51.542Z,100.00
2023-04-07T07:37:54.530Z,100.00
2023-04-07T07:40:58.836Z,100.00
2023-04-07T07:44:01.838Z,100.00
2023-04-07T07:47:04.817Z,100.00
2023-04-07T07:50:08.436Z,100.00
2023-04-07T07:53:13.129Z,100.00
2023-04-07T07:56:17.517Z,100.00
2023-04-07T07:59:23.249Z,100.00
2023-04-07T08:02:31.673Z,100.00
2023-04-07T08:05:34.941Z,100.00
2023-04-07T08:08:37.986Z,100.00
2023-04-07T08:11:42.450Z,100.00
2023-04-07T08:14:46.181Z,100.00
2023-04-07T08:17:49.240Z,100.00
2023-04-07T08:20:52.739Z,98.88
2023-04-07T08:23:56.617Z,100.00
2023-04-07T08:27:01.482Z,100.00
2023-04-07T08:30:07.381Z,100.00
2023-04-07T08:33:10.676Z,99.33
2023-04-07T08:36:13.782Z,97.81
2023-04-07T08:39:16.841Z,99.39
2023-04-07T08:42:29.755Z,99.07
2023-04-07T08:45:34.140Z,97.62
2023-04-07T08:48:40.203Z,92.66
2023-04-07T08:51:48.339Z,91.91
2023-04-07T08:54:53.300Z,89.37
2023-04-07T08:58:00.705Z,86.47
2023-04-07T09:01:06.885Z,85.21
2023-04-07T09:04:13.482Z,85.55
2023-04-07T09:07:16.608Z,87.22
2023-04-07T09:10:19.660Z,85.02
2023-04-07T09:13:25.652Z,85.89
2023-04-07T09:16:31.123Z,85.30
2023-04-07T09:19:34.850Z,84.09
2023-04-07T09:22:42.292Z,82.70
2023-04-07T09:25:45.975Z,82.25
2023-04-07T09:28:53.821Z,83.46
2023-04-07T09:31:57.733Z,85.67
2023-04-07T09:35:01.107Z,87.96
2023-04-07T09:38:06.357Z,87.07
2023-04-07T09:41:11.935Z,88.93
2023-04-07T09:44:16.496Z,88.91
2023-04-07T09:47:19.550Z,90.87
2023-04-07T09:50:35.154Z,88.71
2023-04-07T09:53:52.689Z,90.75
2023-04-07T09:56:57.705Z,90.28
2023-04-07T10:00:02.536Z,86.87
2023-04-07T10:03:19.962Z,89.48
2023-04-07T10:06:23.361Z,87.92
2023-04-07T10:09:29.218Z,90.36
2023-04-07T10:12:34.939Z,92.62
2023-04-07T10:15:39.254Z,92.22
2023-04-07T10:18:42.878Z,90.66
2023-04-07T10:21:46.811Z,92.91
2023-04-07T10:24:57.639Z,93.92
2023-04-07T10:28:06.231Z,95.34
2023-04-07T10:31:12.078Z,96.82
2023-04-07T10:34:15.141Z,99.15
2023-04-07T10:37:22.139Z,96.73
2023-04-07T10:40:34.797Z,99.33
2023-04-07T10:43:40.840Z,100.00
2023-04-07T10:47:07.654Z,100.00
2023-04-07T10:50:19.923Z,100.00
2023-04-07T10:53:24.192Z,100.00
2023-04-07T10:56:28.043Z,100.00
2023-04-07T10:59:31.439Z,100.00
2023-04-07T11:02:36.780Z,100.00
2023-04-07T11:05:40.397Z,100.00
2023-04-07T11:08:46.826Z,100.00
2023-04-07T11:11:52.469Z,100.00
2023-04-07T11:14:56.536Z,100.00
2023-04-07T11:18:14.083Z,100.00
2023-04-07T11:21:20.349Z,100.00
2023-04-07T11:24:37.737Z,100.00
2023-04-07T11:27:40.720Z,100.00
2023-04-07T11:30:51.534Z,100.00
2023-04-07T11:33:59.283Z,100.00
2023-04-07T11:37:21.066Z,100.00
2023-04-07T11:40:35.461Z,100.00
2023-04-07T11:43:41.698Z,100.00
2023-04-07T11:46:55.482Z,100.00
2023-04-07T11:49:59.922Z,100.00
2023-04-07T11:53:02.962Z,100.00
2023-04-07T11:56:09.986Z,100.00
2023-04-07T11:59:24.347Z,100.00
2023-04-07T12:02:35.019Z,100.00
2023-04-07T12:05:45.876Z,100.00
2023-04-07T12:08:48.940Z,100.00
2023-04-07T12:11:52.025Z,100.00
2023-04-07T12:14:55.703Z,100.00
2023-04-07T12:17:58.813Z,100.00
2023-04-07T12:21:03.453Z,100.00
2023-04-07T12:24:06.627Z,100.00
2023-04-07T12:27:09.885Z,100.00
2023-04-07T12:30:14.065Z,100.00
2023-04-07T12:33:17.089Z,100.00
2023-04-07T12:36:21.436Z,100.00
2023-04-07T12:39:24.433Z,100.00
2023-04-07T12:42:27.924Z,100.00
2023-04-07T12:45:31.519Z,100.00
2023-04-07T12:48:34.590Z,100.00
2023-04-07T12:51:40.020Z,100.00
2023-04-07T12:54:44.435Z,100.00
2023-04-07T12:57:47.463Z,100.00
2023-04-07T13:00:50.620Z,100.00
2023-04-07T13:03:54.449Z,100.00
2023-04-07T13:06:59.581Z,100.00
2023-04-07T13:10:02.678Z,100.00
2023-04-07T13:13:06.041Z,100.00
2023-04-07T13:16:09.352Z,100.00
2023-04-07T13:19:12.373Z,100.00
2023-04-07T13:22:21.253Z,100.00
2023-04-07T13:25:24.999Z,100.00
2023-04-07T13:28:27.991Z,100.00
2023-04-07T13:31:31.544Z,100.00
2023-04-07T13:34:34.953Z,100.00
2023-04-07T13:37:39.318Z,100.00
2023-04-07T13:40:42.828Z,100.00
2023-04-07T13:43:45.978Z,100.00
2023-04-07T13:46:49.502Z,100.00
2023-04-07T13:49:52.866Z,100.00
2023-04-07T13:52:57.181Z,100.00
2023-04-07T13:56:00.310Z,100.00
2023-04-07T13:59:03.443Z,100.00
2023-04-07T14:02:06.503Z,100.00
2023-04-07T14:05:10.439Z,100.00
2023-04-07T14:08:14.911Z,100.00
2023-04-07T14:11:18.684Z,100.00
2023-04-07T14:14:21.686Z,100.00
2023-04-07T14:17:24.902Z,100.00
2023-04-07T14:20:28.105Z,100.00
2023-04-07T14:23:37.236Z,100.00
2023-04-07T14:26:40.999Z,100.00
2023-04-07T14:29:43.961Z,100.00
2023-04-07T14:32:47.197Z,100.00
2023-04-07T14:35:50.606Z,100.00
2023-04-07T14:38:55.467Z,100.00
2023-04-07T14:41:58.616Z,100.00
2023-04-07T14:45:03.122Z,100.00
2023-04-07T14:48:07.763Z,100.00
2023-04-07T14:51:14.528Z,100.00
2023-04-07T14:54:19.159Z,100.00
2023-04-07T14:57:22.440Z,100.00
2023-04-07T15:00:26.118Z,100.00
2023-04-07T15:03:29.434Z,100.00
2023-04-07T15:06:32.941Z,100.00
2023-04-07T15:09:37.250Z,100.00
2023-04-07T15:12:40.276Z,100.00
2023-04-07T15:15:43.317Z,100.00
2023-04-07T15:18:47.292Z,100.00
2023-04-07T15:21:50.438Z,100.00
2023-04-07T15:24:54.754Z,100.00
2023-04-07T15:27:57.834Z,100.00
2023-04-07T15:31:01.725Z,100.00
2023-04-07T15:34:05.352Z,100.00
2023-04-07T15:37:08.454Z,100.00
2023-04-07T15:40:13.388Z,100.00
2023-04-07T15:43:16.377Z,100.00
2023-04-07T15:46:19.359Z,100.00
2023-04-07T15:49:24.920Z,100.00
2023-04-07T15:52:29.230Z,100.00
2023-04-07T15:55:34.269Z,100.00
2023-04-07T15:58:37.482Z,100.00
2023-04-07T16:01:40.566Z,100.00
2023-04-07T16:04:44.615Z,100.00
2023-04-07T16:07:47.872Z,100.00
2023-04-07T16:10:52.262Z,100.00
2023-04-07T16:13:55.408Z,100.00
2023-04-07T16:16:59.475Z,100.00
2023-04-07T16:20:03.863Z,100.00
2023-04-07T16:23:06.968Z,100.00
2023-04-07T16:26:11.302Z,100.00
2023-04-07T16:29:14.333Z,100.00
2023-04-07T16:32:17.368Z,100.00
2023-04-07T16:35:20.602Z,100.00
2023-04-07T16:38:24.090Z,100.00
2023-04-07T16:41:28.474Z,100.00
2023-04-07T16:44:32.791Z,100.00
2023-04-07T16:47:36.176Z,100.00
2023-04-07T16:50:42.966Z,100.00
2023-04-07T16:53:46.620Z,100.00
2023-04-07T16:56:51.410Z,100.00
2023-04-07T16:59:54.410Z,100.00
2023-04-07T17:02:57.580Z,100.00
2023-04-07T17:06:05.254Z,100.00
2023-04-07T17:09:12.039Z,100.00
2023-04-07T17:12:16.477Z,100.00
2023-04-07T17:15:20.697Z,100.00
2023-04-07T17:18:23.928Z,100.00
2023-04-07T17:21:27.066Z,100.00
2023-04-07T17:24:30.047Z,100.00
2023-04-07T17:27:35.343Z,100.00
2023-04-07T17:30:38.669Z,100.00
2023-04-07T17:33:44.347Z,100.00
2023-04-07T17:36:47.557Z,100.00
2023-04-07T17:39:50.579Z,100.00
2023-04-07T17:42:56.009Z,100.00
2023-04-07T17:45:59.126Z,100.00
2023-04-07T17:49:02.219Z,100.00
2023-04-07T17:52:05.545Z,100.00
2023-04-07T17:55:10.074Z,100.00
2023-04-07T17:58:14.582Z,100.00
2023-04-07T18:01:17.881Z,100.00
2023-04-07T18:04:21.127Z,100.00
2023-04-07T18:07:24.216Z,100.00
2023-04-07T18:10:27.989Z,100.00
2023-04-07T18:13:32.933Z,100.00
2023-04-07T18:16:36.505Z,100.00
2023-04-07T18:19:39.605Z,100.00
2023-04-07T18:22:42.571Z,100.00
2023-04-07T18:25:45.935Z,100.00
2023-04-07T18:28:50.429Z,100.00
2023-04-07T18:31:53.663Z,100.00
2023-04-07T18:34:56.950Z,100.00
2023-04-07T18:37:59.945Z,100.00
2023-04-07T18:41:04.252Z,100.00
2023-04-07T18:44:08.675Z,100.00
2023-04-07T18:47:11.696Z,100.00
2023-04-07T18:50:14.707Z,100.00
2023-04-07T18:53:17.729Z,100.00
2023-04-07T18:56:22.041Z,100.00
2023-04-07T18:59:27.537Z,100.00
2023-04-07T19:02:30.825Z,100.00
2023-04-07T19:05:34.396Z,100.00
2023-04-07T19:08:37.613Z,100.00
2023-04-07T19:11:41.895Z,100.00
2023-04-07T19:14:46.447Z,100.00
2023-04-07T19:17:49.583Z,100.00
2023-04-07T19:20:52.685Z,100.00
2023-04-07T19:23:56.704Z,100.00
2023-04-07T19:27:03.283Z,100.00
2023-04-07T19:30:09.679Z,100.00
2023-04-07T19:33:12.749Z,100.00
2023-04-07T19:36:15.862Z,100.00
2023-04-07T19:39:18.887Z,100.00
2023-04-07T19:42:21.883Z,100.00
2023-04-07T19:45:26.869Z,100.00
2023-04-07T19:48:30.613Z,100.00
2023-04-07T19:51:35.287Z,100.00
2023-04-07T19:54:38.382Z,100.00
2023-04-07T19:57:41.436Z,100.00
2023-04-07T20:00:49.583Z,100.00
2023-04-07T20:03:52.947Z,100.00
2023-04-07T20:06:56.023Z,100.00
2023-04-07T20:09:59.913Z,100.00
2023-04-07T20:13:04.120Z,100.00
2023-04-07T20:16:10.776Z,100.00
2023-04-07T20:19:13.850Z,100.00
2023-04-07T20:22:16.957Z,100.00
2023-04-07T20:25:20.303Z,100.00
2023-04-07T20:28:23.661Z,100.00
2023-04-07T20:31:28.135Z,100.00
2023-04-07T20:34:31.460Z,100.00
2023-04-07T20:37:34.479Z,100.00
2023-04-07T20:40:38.284Z,100.00
2023-04-07T20:43:41.700Z,100.00
2023-04-07T20:46:47.268Z,100.00
2023-04-07T20:49:50.218Z,100.00
2023-04-07T20:52:53.846Z,100.00
2023-04-07T20:55:58.967Z,100.00
2023-04-07T20:59:01.959Z,100.00
2023-04-07T21:02:06.644Z,100.00
2023-04-07T21:05:10.503Z,100.00
2023-04-07T21:08:14.589Z,100.00
2023-04-07T21:11:17.947Z,100.00
2023-04-07T21:14:21.271Z,100.00
2023-04-07T21:17:25.653Z,100.00
2023-04-07T21:20:28.598Z,100.00
2023-04-07T21:23:31.978Z,100.00
2023-04-07T21:26:35.274Z,100.00
2023-04-07T21:29:40.267Z,100.00
2023-04-07T21:32:46.380Z,100.00
2023-04-07T21:35:49.793Z,100.00
2023-04-07T21:38:53.118Z,100.00
2023-04-07T21:41:57.225Z,100.00
2023-04-07T21:45:00.264Z,100.00
2023-04-07T21:48:05.326Z,100.00
2023-04-07T21:51:08.389Z,100.00
2023-04-07T21:54:12.378Z,100.00
2023-04-07T21:57:15.650Z,100.00
2023-04-07T22:00:19.188Z,100.00
2023-04-07T22:03:23.921Z,100.00
2023-04-07T22:06:27.636Z,100.00
2023-04-07T22:09:30.800Z,100.00
2023-04-07T22:12:33.839Z,100.00
2023-04-07T22:15:36.797Z,100.00
2023-04-07T22:18:41.405Z,100.00
2023-04-07T22:21:44.596Z,100.00
2023-04-07T22:24:47.537Z,100.00
2023-04-07T22:27:52.279Z,100.00
2023-04-07T22:30:55.883Z,100.00
2023-04-07T22:34:00.321Z,100.00
2023-04-07T22:37:03.610Z,100.00
2023-04-07T22:40:08.729Z,100.00
2023-04-07T22:43:12.224Z,100.00
2023-04-07T22:46:17.684Z,100.00
2023-04-07T22:49:22.310Z,100.00
2023-04-07T22:52:25.481Z,100.00
2023-04-07T22:55:29.579Z,100.00
2023-04-07T22:58:32.615Z,100.00
2023-04-07T23:01:35.718Z,100.00
2023-04-07T23:04:40.035Z,100.00
2023-04-07T23:07:43.136Z,100.00
2023-04-07T23:10:46.128Z,100.00
2023-04-07T23:13:49.257Z,100.00
2023-04-07T23:16:54.450Z,100.00
2023-04-07T23:19:59.117Z,100.00
2023-04-07T23:23:02.115Z,100.00
2023-04-07T23:26:06.596Z,100.00
2023-04-07T23:29:09.588Z,100.00
2023-04-07T23:32:13.044Z,100.00
2023-04-07T23:35:17.572Z,100.00
2023-04-07T23:38:20.896Z,100.00
2023-04-07T23:41:23.976Z,100.00
2023-04-07T23:44:26.964Z,100.00
2023-04-07T23:47:30.041Z,100.00
2023-04-07T23:50:34.747Z,100.00
2023-04-07T23:53:37.918Z,100.00
2023-04-07T23:56:41.346Z,100.00
2023-04-07T23:59:44.975Z,100.00
